Bodensee (Kressbronn): 6,7°C  -  Teich der Wetterzentrale Bad Schussenried: 6,1°C |  Schneehöhe Kreuzthal-Steinberg (930 m ü. NN): 8 cm   
01.04.2020Höhe
ü. NN
ZeitTemperatur (°C)Nieder-
schlag
Luft-
feuchte
Luft-
druck
Wind
StationaktuellMinimumMaximumaktuellMaximum
Aldingen654 m03:51-2,2-2,6 (07:35)-0,3 (16:02)0,0 l/m²74%1024,23,7 km/h (1 Bft) W-SW29,6 km/h (5 Bft) W (14:48)
Allmendingen541 m03:50-5,1-5,1 (07:35)-2,1 (15:10)0,0 l/m²84%1024,23,2 km/h (1 Bft) O-NO35,4 km/h (5 Bft) O (15:35)
Altshausen574 m03:50-2,4-2,4 (02:50)-1,1 (00:16)0,0 l/m²62%1021,76,4 km/h (2 Bft) N8,0 km/h (2 Bft) N-NO (01:07)
Amstetten-Reutti663 m03:50-3,3-3,4 (05:15)-1,5 (16:55)0,0 l/m²82%1023,96,4 km/h (2 Bft) O48,3 km/h (6 Bft) W (15:55)
Amtzell-Grenis677 m03:50-2,9-3,1 (03:35)-1,4 (00:00)0,0 l/m²61%1023,76,4 km/h (2 Bft) W-SW6,4 km/h (2 Bft) W-SW (00:00)
Aulendorf570 m03:50-1,8-1,8 (03:49)-0,5 (00:00)0,0 l/m²67%1022,56,4 km/h (2 Bft) NO11,3 km/h (2 Bft) NO (02:20)
Bad Krozingen233 m03:50-0,2-0,2 (07:30)3,7 (16:05)0,0 l/m²68%1023,63,5 km/h (1 Bft) SW38,1 km/h (5 Bft) N (17:05)
Bad Saulgau595 m03:50-3,7-3,7 (06:45)-1,9 (15:00)0,0 l/m²81%1022,40,0 km/h (0 Bft) SO25,7 km/h (4 Bft) S (11:35)
Bad Saulgau, Mannsgrab588 m03:47-4,2-4,3 (03:44)-1,7 (00:17)0,0 l/m²84%1024,90,0 km/h (0 Bft) N-NO0,0 km/h (0 Bft) N (00:00)
Bad Saulgau-Lampertsweiler627 m03:50-1,3-1,3 (03:40)0,2 (00:00)0,0 l/m²71%1025,420,9 km/h (4 Bft) N-NW22,5 km/h (4 Bft) N-NW (01:15)
Bad Schussenried572 m03:50-3,1-3,1 (03:50)-1,1 (00:00)0,0 l/m²84%1021,90,0 km/h (0 Bft) NO9,7 km/h (2 Bft) NO (03:15)
Bergatreute615 m01:45-0,7-0,7 (00:45)0,0 (00:00)0,0 l/m²77%1023,512,9 km/h (3 Bft) NO16,1 km/h (3 Bft) O-NO (01:40)
Biberach (Riss), Boehringer533 m03:50-2,9-3,2 (03:50)-1,1 (00:30)0,0 l/m²82%1022,84,3 km/h (1 Bft) N-NW11,9 km/h (3 Bft) N (03:00)
Biberach (Riss), Realschule553 m03:50-2,7-2,8 (03:45)-0,3 (00:00)0,0 l/m²82%1024,68,0 km/h (2 Bft) N11,3 km/h (2 Bft) N-NO (03:35)
Burgrieden523 m03:50-2,7-2,7 (03:50)-0,4 (00:00)0,0 l/m²77%1023,70,0 km/h (0 Bft) O-NO4,8 km/h (1 Bft) O-NO (02:50)
Burgrieden-Hochstetten510 m03:45-3,2-3,2 (06:50)-0,9 (15:40)0,0 l/m²86%1024,23,2 km/h (1 Bft) NW25,7 km/h (4 Bft) NO (12:55)
Ebersbach579 m03:50-1,4-1,4 (03:50)-0,1 (00:00)0,0 l/m²77%1024,04,8 km/h (1 Bft) NO16,1 km/h (3 Bft) NO (01:25)
Ebersbach-Boos605 m03:50-2,7-2,7 (03:25)-0,1 (00:00)0,0 l/m²83%1023,717,7 km/h (3 Bft) O-NO22,5 km/h (4 Bft) O (01:00)
Ebersbach-Menzenweiler661 m03:50-2,4-2,4 (03:40)-0,6 (00:00)0,0 l/m²82%1023,719,3 km/h (3 Bft) NO24,1 km/h (4 Bft) O-NO (01:05)
Ehingen535 m01:10-2,5-2,5 (01:10)-1,3 (00:05)0,0 l/m²70%1025,40,0 km/h (0 Bft) N-NO5,0 km/h (1 Bft) N-NO (00:15)
Erlenmoos645 m03:50-2,3-2,3 (03:10)-0,9 (00:00)0,0 l/m²84%1023,66,4 km/h (2 Bft) O-NO12,9 km/h (3 Bft) O-NO (01:35)
Ertingen569 m03:50-2,4-2,7 (02:50)-0,6 (00:00)0,0 l/m²82%1023,611,3 km/h (2 Bft) N-NO12,9 km/h (3 Bft) N-NO (00:10)
Friedrichshafen405 m03:50-0,7-0,7 (06:45)0,9 (13:30)0,0 l/m²74%1023,311,3 km/h (2 Bft) N-NO27,4 km/h (4 Bft) NO (15:10)
Günzburg443 m03:50-3,1-3,1 (03:25)-1,1 (00:00)0,0 l/m²86%1021,70,0 km/h (0 Bft) NO0,0 km/h (0 Bft) NO (00:00)
Hochdorf-Appendorf537 m03:50-3,6-4,4 (03:40)-1,7 (00:15)0,0 l/m²64%1023,43,2 km/h (1 Bft) O-NO14,5 km/h (3 Bft) N-NW (03:20)
Höchsten802 m03:50-2,8-2,9 (03:45)-1,4 (00:00)0,0 l/m²78%1021,425,7 km/h (4 Bft) N-NO25,7 km/h (4 Bft) NO (02:45)
Horgenzell618 m03:50-1,9-1,9 (03:45)-0,6 (00:05)0,0 l/m²76%1021,314,5 km/h (3 Bft) N-NO19,3 km/h (3 Bft) N-NO (00:50)
Hoßkirch632 m03:50-4,2-4,3 (03:35)-1,0 (00:15)0,0 l/m²85%1022,43,2 km/h (1 Bft) O-NO14,5 km/h (3 Bft) O-NO (00:20)
Isny, Am Dreifingerbach695 m03:50-2,0-2,9 (02:30)0,1 (01:00)0,0 l/m²74%1022,14,8 km/h (1 Bft) W14,5 km/h (3 Bft) O-NO (01:05)
Isny, Weidachweg706 m03:50-0,4-1,3 (01:25)0,3 (00:25)0,0 l/m²59%1024,64,8 km/h (1 Bft) S-SW12,9 km/h (3 Bft) W (00:10)
Kappel-Grafenhausen163 m03:451,61,6 (06:55)3,3 (14:55)0,0 l/m²63%1021,80,0 km/h (0 Bft) N30,6 km/h (5 Bft) N-NO (16:55)
Kißlegg-Staibshof709 m03:50-2,5-2,5 (03:50)-0,9 (00:00)0,0 l/m²80%1023,48,0 km/h (2 Bft) N-NO14,5 km/h (3 Bft) O (01:50)
Kressbronn398 m03:52-0,3-0,3 (03:34)1,4 (00:00)0,0 l/m²69%1021,89,7 km/h (2 Bft) NO22,5 km/h (4 Bft) NO (00:54)
Kreuzthal-Steinberg-Alpe930 m03:50-4,5-4,6 (03:50)-2,5 (00:00)0,0 l/m²92%1023,01,1 km/h (1 Bft) W22,0 km/h (4 Bft) W-NW (00:10)
Kreuzthal-Steinberggipfel1040 m03:40-3,7-4,0 (02:20)-3,1 (00:10)-81%1023,013,3 km/h (3 Bft) O37,1 km/h (5 Bft) O-SO (00:10)
Kristberg im Montafon (AT)1425 m03:50-5,7-5,9 (02:56)-5,3 (00:40)0,0 l/m²61%1026,43,2 km/h (1 Bft) O10,1 km/h (2 Bft) NO (01:47)
Laupheim500 m03:50-2,7-2,8 (03:10)0,0 (00:00)0,0 l/m²80%1023,36,4 km/h (2 Bft) NO9,7 km/h (2 Bft) O-SO (00:20)
Leutkirch-Heggelbach670 m03:50-3,3-3,3 (03:40)-2,6 (00:30)0,0 l/m²83%1022,76,4 km/h (2 Bft) NO8,0 km/h (2 Bft) N-NO (03:30)
Lindau-Insel420 m03:50-0,4-0,4 (07:25)1,8 (14:55)0,0 l/m²69%1022,40,0 km/h (0 Bft) O-NO29,0 km/h (5 Bft) NO (17:05)
Lindau-Stadt412 m03:50-1,0-1,0 (07:25)1,2 (14:55)0,0 l/m²72%1022,56,4 km/h (2 Bft) NO33,8 km/h (5 Bft) N-NO (15:40)
Maierhöfen im Allgäu733 m03:50-2,1-2,2 (03:10)-1,2 (01:35)0,0 l/m²72%1022,916,1 km/h (3 Bft) O-NO25,7 km/h (4 Bft) O-SO (02:05)
Maselheim543 m03:50-3,7-3,7 (06:40)-2,3 (13:20)0,0 l/m²82%1024,00,0 km/h (0 Bft) S-SW24,1 km/h (4 Bft) O-NO (15:20)
Maselheim-Sulmingen548 m03:50-4,1-4,1 (06:40)-2,2 (15:15)0,0 l/m²85%1025,20,0 km/h (0 Bft) N20,9 km/h (4 Bft) N-NO (12:15)
Mietingen-Baltringen528 m03:50-3,8-4,1 (03:25)-1,3 (00:45)0,0 l/m²83%1025,50,0 km/h (0 Bft) O-NO4,8 km/h (1 Bft) N-NO (01:20)
Mindelheim-Apfeltrach620 m03:51-4,5-4,5 (03:50)-2,7 (00:00)0,0 l/m²86%1025,00,0 km/h (0 Bft) NO0,0 km/h (0 Bft) O-NO (00:00)
Mittelbiberach577 m03:51-3,1-3,1 (03:49)-1,0 (00:16)0,0 l/m²80%1024,74,8 km/h (1 Bft) NO11,2 km/h (2 Bft) NO (01:21)
Neresheim552 m03:00-4,8-4,8 (03:00)-2,0 (00:00)0,0 l/m²82%1023,40,0 km/h (0 Bft) O4,0 km/h (1 Bft) NO (01:00)
Neukirch570 m03:50-2,4-2,4 (05:25)-0,9 (14:35)0,0 l/m²79%1022,98,0 km/h (2 Bft) N-NO37,0 km/h (5 Bft) N-NO (11:55)
Ochsenhausen, Birkenstraße613 m03:50-4,3-4,3 (07:10)-2,2 (12:50)0,0 l/m²79%1024,20,0 km/h (0 Bft) SO3,2 km/h (1 Bft) S-SW (07:05)
Ochsenhausen, Unt. Wiesen575 m03:50-4,6-4,6 (03:50)-2,4 (00:00)0,0 l/m²85%1025,30,0 km/h (0 Bft) NO4,8 km/h (1 Bft) NO (00:00)
Opfenbach-Göritz561 m03:51-5,0-5,0 (03:49)-2,8 (00:00)0,0 l/m²79%1021,01,4 km/h (1 Bft) O-NO6,5 km/h (2 Bft) O-NO (00:18)
Ostrach619 m03:50-3,7-3,7 (03:45)-0,6 (00:00)0,0 l/m²86%1022,03,2 km/h (1 Bft) N-NO4,8 km/h (1 Bft) NO (00:00)
Ravensburg, Goethestraße428 m03:50-0,3-0,3 (03:40)1,3 (00:00)0,0 l/m²74%1022,59,7 km/h (2 Bft) NO14,5 km/h (3 Bft) O-NO (02:45)
Ravensburg-Wernsreute511 m03:50-1,9-1,9 (06:15)0,0 (15:50)0,0 l/m²77%1025,416,1 km/h (3 Bft) N35,4 km/h (5 Bft) N-NO (11:45)
Reichenbach an der Fils343 m03:50-1,5-1,5 (03:45)1,0 (00:00)0,0 l/m²75%1026,24,8 km/h (1 Bft) O11,3 km/h (2 Bft) O (01:20)
Riedlingen530 m03:50-2,3-2,3 (03:50)-1,0 (00:00)0,0 l/m²79%1023,80,0 km/h (0 Bft) NO0,0 km/h (0 Bft) N (00:00)
Rißtissen489 m03:50-1,9-1,9 (03:25)-0,2 (00:00)0,0 l/m²83%1021,33,2 km/h (1 Bft) O-NO8,0 km/h (2 Bft) O-NO (03:30)
Rottweil-Hausen681 m03:48-3,7-3,7 (03:28)-1,9 (00:00)0,0 l/m²80%1024,23,2 km/h (1 Bft) N-NO6,5 km/h (2 Bft) NO (02:14)
Schemmerhofen520 m03:502,72,7 (00:00)2,7 (00:00)0,0 l/m²55%1022,70,0 km/h (0 Bft) NO0,0 km/h (0 Bft) NO (00:00)
Silbertal im Montafon (AT)884 m03:50-3,4-3,4 (03:37)-1,6 (00:01)0,0 l/m²85%1026,10,0 km/h (0 Bft) O-NO0,0 km/h (0 Bft) O-NO (00:00)
Tettnang466 m03:49-0,4-0,4 (03:21)1,0 (00:00)0,0 l/m²69%1022,69,7 km/h (2 Bft) O-SO16,2 km/h (3 Bft) O-SO (01:07)
Tuttlingen648 m03:46-3,3-3,5 (02:41)-2,1 (00:01)0,0 l/m²73%1024,40,0 km/h (0 Bft) W-SW5,2 km/h (1 Bft) W-SW (03:26)
Tuttlingen, Möhringer-Vorstadt711 m03:50-4,0-4,0 (07:10)-2,4 (16:05)0,0 l/m²80%1023,64,8 km/h (1 Bft) O-NO25,7 km/h (4 Bft) N-NW (12:35)
Ummendorf547 m03:50-2,9-2,9 (03:50)-0,7 (00:10)0,0 l/m²65%1024,90,0 km/h (0 Bft) O16,1 km/h (3 Bft) O (01:05)
Ummendorf-Fischbach558 m03:50-4,2-4,2 (03:50)-1,9 (01:25)0,0 l/m²68%1024,50,0 km/h (0 Bft) O0,0 km/h (0 Bft) O (00:00)
Waldburg707 m03:50-2,1-2,1 (03:30)-0,8 (00:00)0,0 l/m²76%1022,414,5 km/h (3 Bft) N19,3 km/h (3 Bft) N (02:35)
Waltenhofen im Allgäu720 m03:50-6,2-6,2 (03:50)-2,2 (01:05)0,0 l/m²85%1023,50,0 km/h (0 Bft) N-NW17,7 km/h (3 Bft) N-NW (11:50)
Wangen, Südring548 m03:50-2,2-2,2 (03:46)-0,3 (00:00)0,0 l/m²79%1022,50,0 km/h (0 Bft) NO13,0 km/h (3 Bft) NO (01:25)
Warthausen-Birkenhard581 m03:48-3,3-3,3 (03:37)-1,2 (00:00)0,0 l/m²82%1023,88,6 km/h (2 Bft) N-NO11,9 km/h (3 Bft) N-NO (02:49)
Winterlingen785 m03:45-4,8-4,8 (03:45)-2,8 (01:00)0,0 l/m²81%1023,21,8 km/h (1 Bft) N3,6 km/h (1 Bft) NO (00:55)

























 
 webcams
| webcam bad schussenried
| webcam kreuzthal-steinberggipfel
| weitere webcams aus der region
| storchennest-cam bad waldsee
 
wetterstationen
wetterstationen
- derzeit 83 Stationen
wetterstationen
wetterstationen
- kartographische Darstellung
niederschlagsdatenbank
niederschlagsstationen
- derzeit 112 Stationen
niederschlagsdatenbank
niederschlagsstationen
- kartographische Darstellung
 
  treffpunkt & service
Pegel Konstanz www.bodensee.net
zugriffe:
insgesamt: 46.623.006
aktueller monat: 195
heute: 195
momentan online: 5
 
 
monatshöchstwert: 653.625
vorheriger monat: 364.213
gestern: 13.565
tageshöchstwert: 57.073
 
wetterwarte süd
 
konradstraße 3
info@wetterwarte-sued.com
roland roth
 
88427 bad schussenried